Time;durP1;ratioP1;P1;durP2;ratioP2;P2;SDS_P1;SDS_P2;PMS_P1;PMS_P2;Temp;Humidity;BMP_temperature;BMP_pressure;BME280_temperature;BME280_humidity;BME280_pressure;Samples;Min_cycle;Max_cycle;Signal;HPM_P1;HPM_P2
2021/06/17 00:00:47;;;;;;;8.82;3.53;;;;;;;14.41;65.56;100773.34;5046696;28;20013;-66
2021/06/17 00:03:12;;;;;;;7.65;3.95;;;;;;;14.37;65.67;100769.91;5064678;28;20081;-66
2021/06/17 00:05:38;;;;;;;4.75;3.42;;;;;;;14.38;65.77;100774.25;5064477;28;20017;-66
2021/06/17 00:08:06;;;;;;;10.70;3.42;;;;;;;14.34;65.99;100770.84;5063344;28;20526;-67
2021/06/17 00:10:44;;;;;;;7.63;3.42;;;;;;;14.27;66.03;100753.56;5064566;28;20060;-68
2021/06/17 00:13:13;;;;;;;5.35;2.88;;;;;;;14.33;66.14;100766.50;5064659;28;20048;-66
2021/06/17 00:15:40;;;;;;;6.10;3.38;;;;;;;14.31;66.09;100764.81;5064274;28;20052;-65
2021/06/17 00:18:08;;;;;;;6.97;3.25;;;;;;;14.24;66.32;100751.00;5064444;28;20017;-64
2021/06/17 00:20:34;;;;;;;7.63;3.80;;;;;;;14.19;66.29;100748.47;5064186;28;20021;-65
2021/06/17 00:22:59;;;;;;;5.78;3.58;;;;;;;14.21;66.49;100758.88;5064373;28;20027;-66
2021/06/17 00:25:26;;;;;;;9.75;4.13;;;;;;;14.12;66.54;100760.75;5064359;28;20029;-66
2021/06/17 00:27:52;;;;;;;4.60;3.72;;;;;;;14.04;66.76;100754.81;5064081;28;20044;-66
2021/06/17 00:30:18;;;;;;;5.38;3.35;;;;;;;13.99;67.07;100773.16;5064246;28;20025;-65
2021/06/17 00:32:43;;;;;;;11.38;3.55;;;;;;;13.96;67.04;100772.38;5064457;28;20045;-66
2021/06/17 00:35:10;;;;;;;6.47;3.60;;;;;;;13.92;67.13;100770.69;5064084;28;20051;-64
2021/06/17 00:37:37;;;;;;;4.70;3.22;;;;;;;13.85;67.27;100775.16;5064127;28;20021;-65
2021/06/17 00:40:06;;;;;;;6.22;3.65;;;;;;;13.83;67.27;100779.53;5063925;28;20503;-65
2021/06/17 00:42:31;;;;;;;7.28;3.97;;;;;;;13.78;67.34;100787.44;5063845;28;20033;-65
2021/06/17 00:44:57;;;;;;;8.90;3.67;;;;;;;13.70;67.44;100779.75;5045968;28;20025;-66
2021/06/17 00:47:22;;;;;;;8.82;3.42;;;;;;;13.66;67.50;100780.66;5045797;28;20122;-66
2021/06/17 00:49:48;;;;;;;6.57;4.10;;;;;;;13.63;67.71;100776.34;5063977;28;20028;-66
2021/06/17 00:52:13;;;;;;;6.82;4.05;;;;;;;13.65;67.82;100778.06;5063544;28;20032;-66
2021/06/17 00:54:38;;;;;;;8.77;4.82;;;;;;;13.61;67.94;100788.56;5063903;28;20027;-66
2021/06/17 00:57:07;;;;;;;8.52;3.90;;;;;;;13.56;67.98;100785.16;5063453;28;20519;-66
2021/06/17 00:59:34;;;;;;;9.18;4.22;;;;;;;13.57;68.08;100792.09;5063962;28;20109;-66
2021/06/17 01:01:59;;;;;;;9.27;3.60;;;;;;;13.54;68.12;100779.09;5062366;28;20028;-66
2021/06/17 01:04:26;;;;;;;7.57;4.00;;;;;;;13.50;68.30;100778.28;5063647;28;20025;-66
2021/06/17 01:06:53;;;;;;;9.75;4.50;;;;;;;13.53;68.38;100795.63;5063584;28;20036;-65
2021/06/17 01:09:27;;;;;;;7.55;4.03;;;;;;;13.51;68.63;100790.44;5045750;28;20028;-65
2021/06/17 01:12:11;;;;;;;7.00;5.15;;;;;;;13.48;68.64;100794.81;5063549;28;20021;-65
2021/06/17 01:14:59;;;;;;;8.40;4.40;;;;;;;13.42;68.58;100789.69;5063163;28;20033;-65
2021/06/17 01:17:26;;;;;;;8.65;3.60;;;;;;;13.38;68.99;100789.75;5063291;28;20021;-65
2021/06/17 01:20:04;;;;;;;10.57;4.10;;;;;;;13.40;69.16;100794.94;5063364;28;20025;-66
2021/06/17 01:23:05;;;;;;;9.38;3.80;;;;;;;13.43;69.35;100794.00;5063406;28;20020;-65
2021/06/17 01:25:42;;;;;;;8.23;4.40;;;;;;;13.41;69.49;100796.66;5063246;28;20108;-65
2021/06/17 01:28:12;;;;;;;5.93;3.72;;;;;;;13.42;69.98;100787.09;5063140;28;20025;-66
2021/06/17 01:30:50;;;;;;;8.95;4.32;;;;;;;13.50;70.28;100787.81;5045584;28;20039;-66
2021/06/17 01:33:17;;;;;;;6.60;3.72;;;;;;;13.48;70.22;100781.78;5063293;28;20102;-65
2021/06/17 01:35:47;;;;;;;6.40;4.07;;;;;;;13.53;70.17;100781.75;5063258;28;20021;-65
2021/06/17 01:38:19;;;;;;;10.00;4.13;;;;;;;13.50;70.22;100799.16;5063192;28;20021;-66
2021/06/17 01:40:46;;;;;;;;;;;;;;;13.51;69.61;100787.81;5063740;28;20021;-65
2021/06/17 01:43:13;;;;;;;4.90;4.13;;;;;;;13.33;70.10;100788.94;5045118;28;19920;-66
2021/06/17 01:45:39;;;;;;;10.32;4.40;;;;;;;13.23;70.55;100785.59;5044239;28;20062;-65
2021/06/17 01:48:07;;;;;;;8.68;4.78;;;;;;;13.24;70.98;100789.06;5062953;28;20496;-65
2021/06/17 01:50:33;;;;;;;6.47;3.80;;;;;;;13.21;71.07;100778.69;5062701;28;20044;-66
2021/06/17 01:52:59;;;;;;;8.82;4.40;;;;;;;13.19;71.21;100777.81;5063092;28;20052;-65
2021/06/17 01:55:32;;;;;;;9.82;4.32;;;;;;;13.17;71.38;100777.84;5062930;28;20025;-66
2021/06/17 01:58:03;;;;;;;8.52;4.07;;;;;;;13.15;71.58;100777.00;5062721;28;20025;-66
2021/06/17 02:00:30;;;;;;;10.23;5.35;;;;;;;13.16;71.68;100770.03;5062675;28;20033;-66
2021/06/17 02:02:56;;;;;;;6.13;4.93;;;;;;;13.14;72.02;100770.94;5062448;28;20028;-67
2021/06/17 02:05:24;;;;;;;7.00;4.75;;;;;;;13.15;72.28;100769.16;5062610;28;20032;-66
2021/06/17 02:07:51;;;;;;;13.55;4.45;;;;;;;13.17;72.28;100767.41;5062593;28;20106;-67
2021/06/17 02:10:19;;;;;;;7.63;4.10;;;;;;;13.18;72.46;100763.06;5062507;28;20035;-66
2021/06/17 02:12:46;;;;;;;7.05;4.15;;;;;;;13.10;72.85;100755.38;5062665;28;20497;-66
2021/06/17 02:15:13;;;;;;;8.65;4.30;;;;;;;13.13;72.81;100756.16;5062150;28;20158;-67
2021/06/17 02:17:42;;;;;;;6.10;4.70;;;;;;;13.04;73.06;100743.25;5062314;28;20032;-66
2021/06/17 02:20:09;;;;;;;9.18;4.30;;;;;;;13.22;73.10;100764.75;5044503;28;20473;-66
2021/06/17 02:22:40;;;;;;;7.18;4.25;;;;;;;13.18;73.17;100752.66;5062519;28;20036;-66
2021/06/17 02:25:06;;;;;;;9.48;4.32;;;;;;;13.21;73.23;100748.22;5062379;28;20031;-67
2021/06/17 02:27:33;;;;;;;6.03;4.25;;;;;;;13.27;73.46;100758.56;5062450;28;20438;-67
2021/06/17 02:30:06;;;;;;;10.40;5.28;;;;;;;13.31;73.72;100763.75;5062724;28;20017;-66
2021/06/17 02:32:38;;;;;;;6.55;4.65;;;;;;;13.24;73.95;100757.78;5061023;28;20017;-66
2021/06/17 02:35:06;;;;;;;8.73;4.43;;;;;;;13.27;74.00;100760.34;5062400;28;20021;-66
2021/06/17 02:37:33;;;;;;;9.88;4.10;;;;;;;13.28;74.22;100764.66;5060729;28;20034;-66
2021/06/17 02:39:58;;;;;;;9.15;4.57;;;;;;;13.29;74.18;100750.72;5061206;28;20021;-66
2021/06/17 02:42:26;;;;;;;6.70;4.15;;;;;;;13.32;74.27;100763.72;5062226;28;20075;-66
2021/06/17 02:44:52;;;;;;;8.68;4.50;;;;;;;13.34;74.36;100761.97;5062192;28;20075;-66
2021/06/17 02:47:18;;;;;;;9.13;3.88;;;;;;;13.34;74.52;100767.19;5062273;28;20344;-66
2021/06/17 02:49:44;;;;;;;12.20;4.13;;;;;;;13.34;74.52;100754.13;5044147;28;20067;-67
2021/06/17 02:52:10;;;;;;;8.25;4.68;;;;;;;13.36;74.50;100757.59;5062131;28;20040;-66
2021/06/17 02:54:35;;;;;;;12.60;5.20;;;;;;;13.38;74.32;100768.88;5062329;28;20032;-66
2021/06/17 02:57:07;;;;;;;6.90;4.53;;;;;;;13.45;74.18;100776.59;5062191;28;20036;-65
2021/06/17 02:59:41;;;;;;;5.28;4.03;;;;;;;13.49;74.04;100773.06;5066020;28;20047;-65
2021/06/17 03:02:14;;;;;;;9.52;4.22;;;;;;;13.48;73.97;100768.75;5065892;28;20031;-65
2021/06/17 03:05:12;;;;;;;4.22;3.35;;;;;;;13.58;73.56;100765.13;5047695;28;20469;-65
2021/06/17 03:07:44;;;;;;;4.22;3.58;;;;;;;13.62;73.37;100747.69;5065599;28;20029;-65
2021/06/17 03:10:11;;;;;;;7.68;3.53;;;;;;;13.87;73.32;100771.63;5065855;28;20397;-66
2021/06/17 03:12:40;;;;;;;5.45;3.38;;;;;;;14.14;73.01;100763.34;5065615;28;20540;-66
2021/06/17 03:15:07;;;;;;;5.57;3.40;;;;;;;14.49;71.85;100769.69;5065481;28;20051;-65
2021/06/17 03:17:40;;;;;;;17.83;3.92;;;;;;;14.82;70.53;100769.09;5065278;28;20029;-65
2021/06/17 03:20:08;;;;;;;8.35;3.13;;;;;;;15.13;68.79;100756.28;5065586;28;20021;-66
2021/06/17 03:22:35;;;;;;;6.35;2.90;;;;;;;15.26;67.59;100760.31;5047618;28;20035;-66
2021/06/17 03:25:07;;;;;;;2.83;2.42;;;;;;;15.36;66.76;100759.22;5065448;28;20017;-66
2021/06/17 03:27:34;;;;;;;4.03;2.65;;;;;;;15.41;65.93;100758.25;5065623;28;20023;-66
2021/06/17 03:30:01;;;;;;;5.03;2.88;;;;;;;15.47;65.62;100751.13;5063970;28;20059;-66
2021/06/17 03:32:29;;;;;;;4.47;2.53;;;;;;;15.58;65.13;100748.25;5065255;28;20025;-67
2021/06/17 03:34:57;;;;;;;6.38;3.13;;;;;;;15.60;64.60;100743.84;5065155;28;20085;-67
2021/06/17 03:37:24;;;;;;;4.45;2.63;;;;;;;15.66;64.48;100747.19;5065060;28;20021;-67
2021/06/17 03:39:52;;;;;;;6.30;2.90;;;;;;;15.77;64.36;100753.03;5065198;28;20020;-67
2021/06/17 03:42:18;;;;;;;4.55;2.80;;;;;;;15.72;63.59;100750.53;5065114;28;20027;-67
2021/06/17 03:44:45;;;;;;;5.72;2.20;;;;;;;15.58;64.32;100750.88;5064951;28;20021;-67
2021/06/17 03:47:11;;;;;;;6.10;2.45;;;;;;;15.65;64.43;100758.56;5064862;28;20032;-66
2021/06/17 03:49:38;;;;;;;5.00;2.42;;;;;;;15.67;64.30;100747.16;5064832;28;20013;-66
2021/06/17 03:52:04;;;;;;;8.80;2.70;;;;;;;15.79;63.92;100753.88;5065003;28;20192;-65
2021/06/17 03:54:31;;;;;;;5.30;2.35;;;;;;;15.82;63.93;100759.03;5065244;28;20028;-65
2021/06/17 03:57:04;;;;;;;8.63;2.45;;;;;;;15.89;63.37;100756.25;5064723;28;20053;-67
2021/06/17 03:59:32;;;;;;;3.58;2.45;;;;;;;15.79;63.46;100746.00;5064661;28;20020;-66
2021/06/17 04:01:58;;;;;;;3.40;2.05;;;;;;;15.57;63.92;100741.31;5064764;28;20032;-68
2021/06/17 04:04:24;;;;;;;6.25;2.50;;;;;;;15.74;63.69;100743.50;5064930;28;20087;-65
2021/06/17 04:06:55;;;;;;;6.25;2.97;;;;;;;15.80;63.37;100746.88;5064521;28;20017;-66
2021/06/17 04:09:30;;;;;;;8.02;3.00;;;;;;;15.70;63.61;100743.63;5064047;28;20025;-66
2021/06/17 04:11:58;;;;;;;4.68;2.42;;;;;;;15.77;63.88;100742.56;5064523;28;20456;-66
2021/06/17 04:14:26;;;;;;;3.95;2.20;;;;;;;16.02;63.04;100743.75;5063153;28;20035;-67
2021/06/17 04:16:52;;;;;;;6.18;2.85;;;;;;;16.15;62.31;100745.13;5064178;28;20056;-65
2021/06/17 04:19:30;;;;;;;5.00;2.20;;;;;;;16.26;61.79;100744.88;5064438;28;20262;-66
2021/06/17 04:22:01;;;;;;;7.15;2.30;;;;;;;16.31;60.65;100732.47;5064221;28;20028;-66
2021/06/17 04:24:30;;;;;;;4.63;2.30;;;;;;;16.21;61.02;100731.03;5064445;28;20106;-65
2021/06/17 04:26:55;;;;;;;2.55;2.13;;;;;;;16.23;61.03;100742.28;5062885;28;20115;-66
2021/06/17 04:29:22;;;;;;;4.93;2.17;;;;;;;16.19;61.26;100740.66;5064104;28;20441;-69
2021/06/17 04:31:49;;;;;;;4.30;2.00;;;;;;;16.14;61.15;100732.06;5064085;28;20029;-66
2021/06/17 04:34:16;;;;;;;7.20;2.47;;;;;;;16.17;61.01;100735.47;5064134;28;20040;-65
2021/06/17 04:36:42;;;;;;;6.15;1.95;;;;;;;16.24;61.39;100741.41;5063789;28;20040;-65
2021/06/17 04:39:07;;;;;;;6.43;2.28;;;;;;;16.42;60.15;100739.19;5063671;28;20024;-66
2021/06/17 04:41:35;;;;;;;5.43;2.22;;;;;;;16.57;60.51;100736.16;5046241;28;20024;-65
2021/06/17 04:44:02;;;;;;;4.88;2.45;;;;;;;17.01;58.77;100745.38;5063938;28;20035;-67
2021/06/17 04:46:29;;;;;;;4.10;1.65;;;;;;;17.25;57.45;100729.84;5063723;28;20051;-75
2021/06/17 04:48:56;;;;;;;3.35;1.90;;;;;;;17.37;58.36;100730.31;5063440;28;20085;-69
2021/06/17 04:51:23;;;;;;;5.50;2.00;;;;;;;17.87;57.16;100728.72;5045929;28;20024;-70
2021/06/17 04:53:52;;;;;;;3.50;1.80;;;;;;;18.28;55.73;100730.84;5063809;28;20031;-73
2021/06/17 04:56:17;;;;;;;3.13;1.90;;;;;;;18.78;55.26;100722.03;5062540;28;20375;-68
2021/06/17 04:58:43;;;;;;;4.45;2.10;;;;;;;19.23;54.01;100715.97;5064148;28;20020;-65
2021/06/17 05:01:08;;;;;;;4.13;2.10;;;;;;;19.43;52.59;100717.78;5063709;28;20378;-70
2021/06/17 05:03:36;;;;;;;4.18;1.73;;;;;;;19.46;52.10;100717.66;5063825;28;20496;-68
2021/06/17 05:06:03;;;;;;;6.00;2.30;;;;;;;19.46;51.38;100720.28;5063540;28;20025;-69
2021/06/17 05:11:13;;;;;;;4.00;1.73;;;;;;;19.28;49.72;100712.22;5063906;28;20087;-71
2021/06/17 05:13:42;;;;;;;4.90;1.60;;;;;;;19.06;50.90;100728.84;5063656;28;20044;-68
2021/06/17 05:16:08;;;;;;;2.70;1.55;;;;;;;19.08;51.27;100723.50;5062043;28;20327;-69
2021/06/17 05:18:34;;;;;;;4.32;2.20;;;;;;;19.28;49.53;100711.38;5063525;28;20025;-70
2021/06/17 05:21:01;;;;;;;4.00;1.58;;;;;;;19.81;51.23;100712.69;5062552;28;20052;-69
2021/06/17 05:23:27;;;;;;;3.97;1.58;;;;;;;20.87;48.72;100717.75;5062163;28;20021;-69
2021/06/17 05:25:55;;;;;;;4.10;1.50;;;;;;;21.61;45.89;100711.66;5063472;28;20067;-69
2021/06/17 05:28:22;;;;;;;2.58;1.40;;;;;;;21.75;43.88;100719.72;5063278;28;20025;-69
2021/06/17 05:30:50;;;;;;;4.50;2.08;;;;;;;21.61;42.40;100714.28;5063315;28;20024;-68
2021/06/17 05:33:16;;;;;;;4.13;1.77;;;;;;;21.53;43.76;100715.50;5063435;28;20098;-69
2021/06/17 05:35:41;;;;;;;3.70;1.40;;;;;;;21.58;43.09;100707.34;5063071;28;20032;-70
2021/06/17 05:38:07;;;;;;;2.50;1.63;;;;;;;21.43;43.07;100709.00;5063590;28;20025;-69
2021/06/17 05:40:33;;;;;;;4.57;1.38;;;;;;;21.54;41.75;100719.88;5063423;28;20111;-73
2021/06/17 05:42:58;;;;;;;6.22;1.73;;;;;;;21.15;41.75;100716.47;5063101;28;20060;-69
2021/06/17 05:45:24;;;;;;;4.80;1.67;;;;;;;20.80;43.51;100714.53;5061676;28;20020;-69
2021/06/17 05:47:49;;;;;;;3.63;1.20;;;;;;;20.71;43.60;100709.69;5061538;28;20381;-69
2021/06/17 05:50:15;;;;;;;4.38;1.70;;;;;;;20.86;44.11;100708.16;5045478;28;20035;-70
2021/06/17 05:52:40;;;;;;;3.95;1.50;;;;;;;21.36;44.08;100705.78;5061991;28;20385;-70
2021/06/17 05:55:07;;;;;;;4.05;1.58;;;;;;;21.85;40.36;100706.06;5061675;28;20028;-70
2021/06/17 05:57:35;;;;;;;3.65;1.30;;;;;;;21.53;40.49;100701.47;5063143;28;20084;-70
2021/06/17 06:00:00;;;;;;;4.45;1.20;;;;;;;21.30;39.60;100706.97;5061961;28;20027;-71
2021/06/17 06:02:26;;;;;;;2.50;1.30;;;;;;;20.87;41.07;100703.69;5045182;28;20045;-70
2021/06/17 06:04:52;;;;;;;3.40;1.40;;;;;;;20.58;41.61;100696.22;5063064;28;20082;-70
2021/06/17 06:07:18;;;;;;;4.18;1.45;;;;;;;20.45;43.17;100706.47;5062837;28;20036;-70
2021/06/17 06:09:44;;;;;;;2.28;1.30;;;;;;;20.63;42.28;100696.88;5062794;28;20052;-70
2021/06/17 06:12:10;;;;;;;3.15;1.23;;;;;;;20.75;42.57;100694.59;5062728;28;20025;-70
2021/06/17 06:14:36;;;;;;;2.80;1.20;;;;;;;21.00;41.18;100698.72;5062720;28;20020;-72
2021/06/17 06:17:02;;;;;;;2.90;1.48;;;;;;;20.92;41.34;100696.47;5062712;28;20035;-69
2021/06/17 06:19:30;;;;;;;4.47;1.55;;;;;;;20.95;41.60;100695.44;5062677;28;20046;-71
2021/06/17 06:21:55;;;;;;;3.47;1.33;;;;;;;21.08;41.61;100687.81;5062941;28;20032;-69
2021/06/17 06:24:21;;;;;;;5.18;1.80;;;;;;;21.36;41.64;100695.22;5062864;28;20021;-68
2021/06/17 06:26:46;;;;;;;3.78;1.38;;;;;;;21.44;41.72;100689.56;5062771;28;20088;-72
2021/06/17 06:29:12;;;;;;;2.47;1.27;;;;;;;21.30;40.60;100688.47;5062556;28;20085;-69
2021/06/17 06:31:38;;;;;;;2.30;1.08;;;;;;;21.02;41.36;100681.06;5064030;28;20084;-69
2021/06/17 06:34:03;;;;;;;2.28;1.60;;;;;;;20.95;42.46;100692.81;5066731;28;20021;-70
2021/06/17 06:36:29;;;;;;;2.03;1.35;;;;;;;21.10;42.35;100696.50;5066499;28;20029;-69
2021/06/17 06:38:54;;;;;;;4.28;1.77;;;;;;;21.41;41.13;100697.63;5066470;28;20028;-71
2021/06/17 06:41:20;;;;;;;4.35;1.60;;;;;;;21.44;41.49;100700.13;5048404;28;20111;-70
2021/06/17 06:43:45;;;;;;;2.85;1.20;;;;;;;;;;5066357;28;20028;-72
2021/06/17 06:46:10;;;;;;;5.50;1.60;;;;;;;21.74;40.17;100703.97;5066207;28;20476;-71
2021/06/17 06:48:36;;;;;;;3.60;1.33;;;;;;;21.75;40.48;100703.88;5064868;28;20792;-70
2021/06/17 06:51:01;;;;;;;1.95;1.45;;;;;;;22.10;40.41;100694.22;5064710;28;20044;-70
2021/06/17 06:53:27;;;;;;;2.20;1.20;;;;;;;22.27;39.96;100690.66;5064678;28;20039;-70
2021/06/17 06:55:52;;;;;;;6.32;1.63;;;;;;;22.71;39.71;100683.09;5066013;28;20021;-70
2021/06/17 06:58:17;;;;;;;3.55;1.38;;;;;;;22.91;38.32;100689.91;5065978;28;20021;-70
2021/06/17 07:00:43;;;;;;;3.72;1.80;;;;;;;22.85;38.37;100684.94;5066137;28;20035;-70
2021/06/17 07:03:10;;;;;;;2.22;1.20;;;;;;;22.88;38.32;100690.06;5066190;28;20048;-71
2021/06/17 07:05:36;;;;;;;3.47;1.52;;;;;;;22.84;38.19;100691.19;5066051;28;20021;-70
2021/06/17 07:08:04;;;;;;;2.65;1.33;;;;;;;22.74;37.60;100677.63;5065783;28;20435;-70
2021/06/17 07:10:30;;;;;;;2.97;1.55;;;;;;;22.40;38.70;100693.50;5064522;28;20334;-71
2021/06/17 07:12:55;;;;;;;3.17;1.70;;;;;;;22.42;38.59;100686.38;5066118;28;20033;-70
2021/06/17 07:15:21;;;;;;;2.05;1.30;;;;;;;22.65;39.36;100668.41;5065536;28;20179;-71
2021/06/17 07:17:46;;;;;;;2.65;1.38;;;;;;;23.30;37.49;100669.19;5047745;28;20024;-71
2021/06/17 07:20:12;;;;;;;2.67;1.50;;;;;;;23.60;35.46;100675.44;5065584;28;20112;-70
2021/06/17 07:22:37;;;;;;;3.90;1.10;;;;;;;23.43;35.77;100655.25;5064419;28;20469;-71
2021/06/17 07:25:03;;;;;;;3.97;1.20;;;;;;;23.47;36.32;100654.09;5047617;28;20044;-72
2021/06/17 07:27:28;;;;;;;4.95;1.17;;;;;;;23.62;36.43;100650.56;5063918;28;20033;-70
2021/06/17 07:29:54;;;;;;;4.60;1.50;;;;;;;23.76;35.17;100644.44;5065513;28;20140;-72
2021/06/17 07:32:20;;;;;;;2.75;1.05;;;;;;;23.87;35.61;100646.44;5065599;28;20055;-69
2021/06/17 07:34:46;;;;;;;2.33;1.23;;;;;;;24.11;33.59;100653.81;5065358;28;20033;-70
2021/06/17 07:37:12;;;;;;;2.35;1.00;;;;;;;24.00;33.62;100651.84;5065466;28;20013;-71
2021/06/17 07:39:38;;;;;;;4.43;1.63;;;;;;;23.86;33.96;100659.78;5065163;28;20032;-70
2021/06/17 07:42:04;;;;;;;2.38;1.10;;;;;;;23.94;34.39;100659.31;5065548;28;20029;-71
2021/06/17 07:44:29;;;;;;;6.45;1.30;;;;;;;24.11;33.95;100658.25;5064512;28;20021;-71
2021/06/17 07:46:54;;;;;;;2.05;1.15;;;;;;;24.09;34.08;100655.69;5065103;28;20032;-71
2021/06/17 07:49:20;;;;;;;2.60;1.33;;;;;;;24.37;33.76;100663.78;5063766;28;20078;-70
2021/06/17 07:51:45;;;;;;;3.75;1.65;;;;;;;24.63;33.23;100666.59;5047161;28;20025;-72
2021/06/17 07:54:10;;;;;;;2.05;1.30;;;;;;;24.75;32.92;100662.28;5047156;28;20017;-70
2021/06/17 07:56:36;;;;;;;2.28;1.35;;;;;;;25.14;32.03;100654.50;5064815;28;20036;-70
2021/06/17 07:59:01;;;;;;;2.42;1.20;;;;;;;25.29;30.60;100657.09;5063670;28;20504;-72
2021/06/17 08:01:27;;;;;;;6.65;1.75;;;;;;;25.06;31.73;100659.44;5064886;28;20021;-70
2021/06/17 08:03:53;;;;;;;1.55;1.00;;;;;;;25.11;31.00;100658.19;5063374;28;20085;-71
2021/06/17 08:06:19;;;;;;;3.28;1.27;;;;;;;24.96;32.01;100648.56;5064786;28;20029;-71
2021/06/17 08:08:44;;;;;;;1.95;1.02;;;;;;;25.33;30.81;100648.78;5046599;28;20414;-74
2021/06/17 08:11:11;;;;;;;2.20;1.20;;;;;;;25.11;31.24;100646.72;5063139;28;20079;-71
2021/06/17 08:13:37;;;;;;;2.83;1.30;;;;;;;24.96;31.60;100660.06;5064650;28;20025;-74
2021/06/17 08:16:02;;;;;;;2.67;1.00;;;;;;;24.74;31.99;100660.56;5064348;28;20053;-71
2021/06/17 08:18:28;;;;;;;3.08;1.15;;;;;;;24.74;32.48;100661.44;5046719;28;20013;-73
2021/06/17 08:20:54;;;;;;;3.55;1.30;;;;;;;24.93;32.32;100659.41;5064416;28;20067;-72
2021/06/17 08:23:21;;;;;;;2.92;1.17;;;;;;;25.38;31.15;100665.25;5064285;28;20045;-73
2021/06/17 08:25:48;;;;;;;4.40;1.40;;;;;;;25.41;32.09;100668.66;5062861;28;20021;-71
2021/06/17 08:28:13;;;;;;;3.15;1.42;;;;;;;25.76;30.67;100668.09;5063080;28;20021;-73
2021/06/17 08:30:39;;;;;;;1.30;0.82;;;;;;;25.81;30.35;100673.09;5064580;28;20031;-71
2021/06/17 08:33:04;;;;;;;4.30;1.40;;;;;;;25.64;31.11;100675.09;5046262;28;20044;-70
2021/06/17 08:35:30;;;;;;;3.45;1.13;;;;;;;25.82;30.74;100664.16;5046090;28;20028;-71
2021/06/17 08:37:56;;;;;;;3.20;1.10;;;;;;;26.07;30.14;100660.63;5062387;28;20027;-71
2021/06/17 08:40:28;;;;;;;6.63;1.15;;;;;;;26.06;29.43;100658.09;5064071;28;20025;-73
2021/06/17 08:42:53;;;;;;;4.32;1.30;;;;;;;25.97;29.42;100655.13;5062619;28;20041;-73
2021/06/17 08:45:19;;;;;;;9.18;1.20;;;;;;;26.05;29.86;100675.88;5046170;28;20016;-72
2021/06/17 08:47:46;;;;;;;3.83;1.00;;;;;;;26.15;29.23;100680.53;5064092;28;20124;-71
2021/06/17 08:50:13;;;;;;;2.67;1.00;;;;;;;26.10;29.48;100678.22;5064241;28;20071;-73
2021/06/17 08:52:40;;;;;;;7.75;1.33;;;;;;;26.07;29.75;100681.91;5062636;28;20021;-71
2021/06/17 08:55:11;;;;;;;2.63;1.05;;;;;;;26.27;30.29;100677.00;5063984;28;20028;-72
2021/06/17 08:57:36;;;;;;;3.05;1.30;;;;;;;26.45;29.88;100680.22;5062420;28;20021;-73
2021/06/17 09:00:24;;;;;;;3.30;1.05;;;;;;;26.39;29.55;100663.81;5063838;28;20024;-70
2021/06/17 09:03:02;;;;;;;2.15;1.52;;;;;;;26.33;30.09;100678.41;5063716;28;20025;-70
2021/06/17 09:05:28;;;;;;;5.47;1.30;;;;;;;26.45;29.70;100677.56;5045957;28;20021;-70
2021/06/17 09:07:54;;;;;;;10.57;1.33;;;;;;;26.73;29.54;100672.88;5063483;28;20296;-70
2021/06/17 09:10:20;;;;;;;3.20;1.10;;;;;;;26.78;27.65;100674.34;5063845;28;20029;-72
2021/06/17 09:12:51;;;;;;;4.80;1.27;;;;;;;26.26;28.79;100674.47;5063227;28;20757;-69
2021/06/17 09:15:54;;;;;;;1.88;1.30;;;;;;;25.91;29.06;100668.84;5063317;28;20128;-73
2021/06/17 09:18:22;;;;;;;3.00;1.40;;;;;;;25.56;29.53;100669.44;5031498;28;20036;-72
2021/06/17 09:20:56;;;;;;;4.15;1.17;;;;;;;25.77;30.07;100664.47;5062125;28;20025;-71
2021/06/17 09:23:33;;;;;;;3.67;1.60;;;;;;;26.14;29.99;100657.53;5062285;28;20024;-71
2021/06/17 09:26:20;;;;;;;2.03;1.20;;;;;;;26.71;28.86;100648.16;5063370;28;20025;-73
2021/06/17 09:29:00;;;;;;;2.17;1.13;;;;;;;26.88;28.45;100656.72;5045379;28;20028;-72
2021/06/17 09:31:39;;;;;;;2.38;1.10;;;;;;;26.80;28.42;100643.13;5063377;28;20039;-71
2021/06/17 09:34:06;;;;;;;2.00;1.17;;;;;;;26.93;27.61;100646.59;5063314;28;20099;-70
2021/06/17 09:36:34;;;;;;;3.58;1.45;;;;;;;26.72;28.15;100641.91;5063158;28;20029;-71
2021/06/17 09:39:02;;;;;;;1.85;1.20;;;;;;;26.69;28.87;100655.44;5063168;28;20128;-73
2021/06/17 09:41:43;;;;;;;3.90;1.50;;;;;;;26.90;28.53;100652.13;5045482;28;20024;-73
2021/06/17 09:44:31;;;;;;;1.77;1.20;;;;;;;27.01;29.19;100647.84;5063447;28;20047;-71
2021/06/17 09:47:11;;;;;;;4.80;1.30;;;;;;;27.60;28.47;100654.09;5045295;28;20033;-73
2021/06/17 09:49:41;;;;;;;4.13;1.77;;;;;;;27.76;28.21;100644.94;5061778;28;20029;-72
2021/06/17 09:52:08;;;;;;;4.03;1.52;;;;;;;28.23;27.51;100643.97;5063100;28;20066;-72
2021/06/17 09:54:36;;;;;;;2.40;1.48;;;;;;;28.40;26.82;100647.97;5062001;28;20646;-73
2021/06/17 09:57:05;;;;;;;2.85;1.70;;;;;;;28.38;26.80;100642.75;5061774;28;20048;-74
2021/06/17 09:59:40;;;;;;;3.15;1.67;;;;;;;28.45;26.21;100643.13;5062884;28;20013;-73
2021/06/17 10:02:09;;;;;;;3.65;1.30;;;;;;;28.45;27.58;100649.28;5063332;28;20112;-72
2021/06/17 10:04:35;;;;;;;3.47;1.35;;;;;;;29.28;25.88;100639.88;5062875;28;20021;-72
2021/06/17 10:07:01;;;;;;;3.05;1.48;;;;;;;29.03;26.63;100636.63;5063428;28;20041;-71
2021/06/17 10:09:27;;;;;;;3.55;1.50;;;;;;;29.09;26.28;100642.44;5067093;28;20039;-73
2021/06/17 10:11:53;;;;;;;4.28;1.58;;;;;;;28.66;26.39;100639.66;5066924;28;20088;-71
2021/06/17 10:14:18;;;;;;;4.07;1.88;;;;;;;28.47;27.10;100641.16;5049005;28;20021;-70
2021/06/17 10:16:45;;;;;;;5.18;1.67;;;;;;;28.12;27.79;100644.78;5066915;28;20113;-71
2021/06/17 10:19:12;;;;;;;3.65;1.30;;;;;;;28.16;27.12;100649.78;5048847;28;20013;-71
2021/06/17 10:21:37;;;;;;;4.25;1.42;;;;;;;27.71;27.65;100639.94;5065393;28;20021;-73
2021/06/17 10:24:11;;;;;;;5.55;1.50;;;;;;;27.45;28.40;100635.63;5065759;28;20036;-71
2021/06/17 10:26:44;;;;;;;5.25;1.65;;;;;;;27.28;29.19;100642.28;5048819;28;20016;-72
2021/06/17 10:29:22;;;;;;;3.67;1.70;;;;;;;27.64;28.39;100623.53;5066676;28;20456;-71
2021/06/17 10:31:50;;;;;;;4.82;2.78;;;;;;;28.09;27.39;100621.88;5066857;28;20033;-72
2021/06/17 10:34:30;;;;;;;2.55;1.60;;;;;;;28.40;26.86;100626.59;5048457;28;20032;-73
2021/06/17 10:37:05;;;;;;;3.33;1.80;;;;;;;28.55;27.08;100624.50;5065129;28;20033;-74
2021/06/17 10:39:51;;;;;;;5.07;1.80;;;;;;;28.41;27.03;100626.47;5066539;28;20051;-72
2021/06/17 10:42:23;;;;;;;3.95;2.05;;;;;;;28.38;27.17;100623.22;5066479;28;20523;-73
2021/06/17 10:45:18;;;;;;;3.55;2.08;;;;;;;28.57;27.07;100615.41;5066324;28;20082;-71
2021/06/17 10:47:45;;;;;;;3.95;1.95;;;;;;;28.78;27.10;100616.41;5004202;28;20608;-71
2021/06/17 10:50:20;;;;;;;4.28;2.20;;;;;;;28.50;27.24;100618.72;5003963;28;20049;-72
2021/06/17 10:52:47;;;;;;;3.88;1.77;;;;;;;28.35;27.69;100610.13;5004170;28;20061;-71
2021/06/17 10:55:18;;;;;;;6.65;2.10;;;;;;;28.43;28.25;100618.34;5004074;28;20091;-71
2021/06/17 10:57:44;;;;;;;5.07;2.10;;;;;;;28.65;27.55;100606.75;5003810;28;20042;-71
2021/06/17 11:00:21;;;;;;;3.92;1.88;;;;;;;28.70;27.49;100609.03;5004051;28;20019;-74
2021/06/17 11:02:47;;;;;;;3.85;2.10;;;;;;;28.26;28.42;100603.69;5004000;28;20018;-72
2021/06/17 11:08:21;;;;;;;3.63;1.95;;;;;;;27.53;29.75;100611.06;5003500;28;20044;-71
2021/06/17 11:11:01;;;;;;;3.75;2.05;;;;;;;27.43;30.13;100600.25;4987419;28;20034;-70
2021/06/17 11:13:40;;;;;;;3.60;2.10;;;;;;;27.54;30.40;100606.56;5004011;28;20033;-71
2021/06/17 11:16:11;;;;;;;3.25;2.03;;;;;;;27.88;29.54;100611.94;4987281;28;20050;-72
2021/06/17 11:18:51;;;;;;;6.03;1.80;;;;;;;27.67;29.72;100591.34;5002560;28;20034;-72
2021/06/17 11:21:25;;;;;;;4.22;2.28;;;;;;;27.60;29.69;100600.75;5003583;28;20026;-71
2021/06/17 11:24:06;;;;;;;5.57;2.45;;;;;;;27.33;30.94;100593.94;5011744;28;20030;-71
2021/06/17 11:26:37;;;;;;;3.92;2.13;;;;;;;27.43;30.27;100584.25;5064611;28;20583;-73
2021/06/17 11:29:09;;;;;;;4.25;2.58;;;;;;;27.23;30.53;100572.47;5065741;28;20056;-72
2021/06/17 11:31:41;;;;;;;5.32;2.50;;;;;;;27.13;31.27;100582.97;5065626;28;20032;-71
2021/06/17 11:34:13;;;;;;;4.00;2.50;;;;;;;27.41;30.28;100569.34;5064270;28;20033;-72
2021/06/17 11:36:50;;;;;;;4.20;2.58;;;;;;;27.35;30.55;100560.88;5065359;28;20029;-72
2021/06/17 11:39:22;;;;;;;4.22;2.35;;;;;;;27.29;30.68;100563.16;5065040;28;20071;-71